Time;durP1;ratioP1;P1;durP2;ratioP2;P2;SDS_P1;SDS_P2;PMS_P1;PMS_P2;Temp;Humidity;BMP_temperature;BMP_pressure;BME280_temperature;BME280_humidity;BME280_pressure;Samples;Min_cycle;Max_cycle;Signal;HPM_P1;HPM_P2
2023/03/20 00:02:23;;;;;;;27.42;15.95;;;8.60;99.90;;;;;;7601188;19;20018;-73
2023/03/20 00:04:56;;;;;;;23.58;12.48;;;8.60;99.90;;;;;;7601026;19;20045;-73
2023/03/20 00:07:29;;;;;;;20.48;13.57;;;8.50;99.90;;;;;;7609609;19;20424;-73
2023/03/20 00:10:01;;;;;;;17.75;12.88;;;8.50;99.90;;;;;;7602438;19;20022;-73
2023/03/20 00:12:34;;;;;;;20.83;11.37;;;8.60;99.90;;;;;;7610810;19;20777;-73
2023/03/20 00:15:18;;;;;;;24.45;14.70;;;8.50;99.90;;;;;;7591534;19;20660;-73
2023/03/20 00:17:52;;;;;;;24.23;11.80;;;8.50;99.90;;;;;;7610242;19;20022;-73
2023/03/20 00:20:24;;;;;;;22.17;13.07;;;8.50;99.90;;;;;;7597884;19;20732;-73
2023/03/20 00:22:56;;;;;;;24.85;15.70;;;8.40;99.90;;;;;;7609457;19;20026;-73
2023/03/20 00:25:29;;;;;;;27.58;15.77;;;8.40;99.90;;;;;;7599740;19;20035;-73
2023/03/20 00:28:10;;;;;;;24.65;15.40;;;8.50;99.90;;;;;;7605301;19;20751;-73
2023/03/20 00:30:43;;;;;;;33.95;18.92;;;8.50;99.90;;;;;;7604069;19;20966;-73
2023/03/20 00:33:15;;;;;;;32.90;16.60;;;8.50;99.90;;;;;;7596372;19;20014;-73
2023/03/20 00:35:48;;;;;;;28.05;14.68;;;8.50;99.90;;;;;;7587601;19;20956;-74
2023/03/20 00:38:20;;;;;;;24.98;14.77;;;8.60;99.90;;;;;;7602277;19;20475;-74
2023/03/20 00:40:52;;;;;;;32.90;18.05;;;8.50;99.90;;;;;;7592519;19;20022;-74
2023/03/20 00:43:24;;;;;;;42.70;19.75;;;8.50;99.90;;;;;;7594786;19;20053;-73
2023/03/20 00:45:56;;;;;;;33.70;17.90;;;8.60;99.90;;;;;;7605844;19;20022;-73
2023/03/20 00:48:28;;;;;;;37.20;19.35;;;8.50;99.90;;;;;;7607906;19;20029;-73
2023/03/20 00:51:00;;;;;;;43.75;20.88;;;8.50;99.90;;;;;;7591768;19;21186;-73
2023/03/20 00:53:33;;;;;;;42.17;20.83;;;8.50;99.90;;;;;;7606783;19;20018;-78
2023/03/20 00:56:06;;;;;;;30.95;16.92;;;8.60;99.90;;;;;;7608482;19;20014;-78
2023/03/20 00:58:38;;;;;;;34.53;17.90;;;8.60;99.90;;;;;;7610109;19;20065;-78
2023/03/20 01:01:10;;;;;;;23.48;13.75;;;8.60;99.90;;;;;;7611968;19;20808;-78
2023/03/20 01:03:43;;;;;;;11.50;8.95;;;8.60;99.90;;;;;;7617421;19;20031;-76
2023/03/20 01:06:15;;;;;;;20.83;12.00;;;8.50;99.90;;;;;;7590939;19;20015;-76
2023/03/20 01:08:47;;;;;;;13.43;10.25;;;8.50;99.90;;;;;;7613673;19;20015;-76
2023/03/20 01:11:22;;;;;;;13.32;10.48;;;8.50;99.90;;;;;;7606019;19;20026;-76
2023/03/20 01:13:56;;;;;;;15.32;10.25;;;8.50;99.90;;;;;;7605097;19;20058;-76
2023/03/20 01:16:28;;;;;;;17.67;11.95;;;8.50;99.90;;;;;;7594951;19;20030;-77
2023/03/20 01:19:00;;;;;;;13.43;9.43;;;8.50;99.90;;;;;;7609028;19;20022;-76
2023/03/20 01:21:32;;;;;;;14.13;8.98;;;8.60;99.90;;;;;;7601679;19;20018;-77
2023/03/20 01:24:05;;;;;;;13.13;9.20;;;8.60;99.90;;;;;;7592253;19;20026;-77
2023/03/20 01:26:41;;;;;;;12.23;9.17;;;8.60;99.90;;;;;;7606208;19;20610;-77
2023/03/20 01:29:26;;;;;;;12.00;8.93;;;8.60;99.90;;;;;;7593742;19;20883;-75
2023/03/20 01:31:58;;;;;;;12.52;9.32;;;8.50;99.90;;;;;;7601366;19;21214;-75
2023/03/20 01:34:31;;;;;;;15.60;9.82;;;8.50;99.90;;;;;;7591585;19;21607;-75
2023/03/20 01:37:11;;;;;;;12.75;9.23;;;8.50;99.90;;;;;;7600255;19;20120;-75
2023/03/20 01:39:44;;;;;;;13.40;9.18;;;8.50;99.90;;;;;;7592493;19;20998;-75
2023/03/20 01:42:17;;;;;;;12.75;8.85;;;8.50;99.90;;;;;;7598090;19;20072;-74
2023/03/20 01:44:50;;;;;;;14.13;8.27;;;8.50;99.90;;;;;;7585505;19;20065;-75
2023/03/20 01:47:23;;;;;;;30.05;14.68;;;8.40;99.90;;;;;;7594322;19;20018;-75
2023/03/20 01:50:18;;;;;;;22.55;12.27;;;8.50;99.90;;;;;;7577056;19;20034;-75
2023/03/20 01:53:09;;;;;;;12.13;7.68;;;8.60;99.90;;;;;;7599143;19;20044;-76
2023/03/20 01:55:50;;;;;;;13.80;8.57;;;8.60;99.90;;;;;;7595137;19;20033;-75
2023/03/20 01:58:31;;;;;;;11.93;8.35;;;8.60;99.90;;;;;;7596850;19;20019;-75
2023/03/20 02:01:07;;;;;;;22.20;11.90;;;8.60;99.90;;;;;;7590589;19;20014;-75
2023/03/20 02:03:44;;;;;;;11.27;7.90;;;8.50;99.90;;;;;;7593450;19;20053;-75
2023/03/20 02:06:25;;;;;;;12.93;8.18;;;8.40;99.90;;;;;;7603674;19;20015;-75
2023/03/20 02:09:16;;;;;;;17.88;11.00;;;8.50;99.90;;;;;;7594163;19;20056;-76
2023/03/20 02:11:50;;;;;;;13.85;8.73;;;8.40;99.90;;;;;;7609736;19;20053;-76
2023/03/20 02:14:25;;;;;;;7.70;6.28;;;8.40;99.90;;;;;;7597430;19;21208;-76
2023/03/20 02:17:07;;;;;;;12.13;6.30;;;8.40;99.90;;;;;;7603384;19;20011;-75
2023/03/20 02:20:06;;;;;;;8.05;4.95;;;8.50;99.90;;;;;;7612456;19;20639;-76
2023/03/20 02:23:00;;;;;;;6.55;5.45;;;8.60;99.90;;;;;;7609271;19;20026;-75
2023/03/20 02:26:01;;;;;;;6.03;4.70;;;8.50;99.90;;;;;;7600990;19;20049;-72
2023/03/20 02:29:00;;;;;;;6.95;4.95;;;8.60;99.90;;;;;;7602716;19;20015;-74
2023/03/20 02:31:35;;;;;;;5.97;4.75;;;8.60;99.90;;;;;;7602909;19;20022;-74
2023/03/20 02:34:14;;;;;;;6.45;4.85;;;8.60;99.90;;;;;;7594084;19;20026;-73
2023/03/20 02:37:13;;;;;;;9.27;5.88;;;8.60;99.90;;;;;;7605307;19;20971;-74
2023/03/20 02:40:13;;;;;;;6.20;4.88;;;8.60;99.90;;;;;;7595256;19;20014;-74
2023/03/20 02:43:05;;;;;;;6.32;4.95;;;8.50;99.90;;;;;;7599152;19;20061;-74
2023/03/20 02:46:12;;;;;;;7.97;5.93;;;8.50;99.90;;;;;;7578578;19;20022;-74
2023/03/20 02:48:46;;;;;;;11.60;7.03;;;8.50;99.90;;;;;;7581598;19;20039;-74
2023/03/20 02:51:39;;;;;;;39.70;16.73;;;8.40;99.90;;;;;;7597313;19;20022;-75
2023/03/20 02:54:19;;;;;;;9.77;6.72;;;8.40;99.90;;;;;;7579033;19;20243;-74
2023/03/20 02:57:04;;;;;;;;;;;8.50;99.90;;;;;;7598187;19;21864;-74
2023/03/20 02:59:56;;;;;;;10.30;7.28;;;8.50;99.90;;;;;;7597606;19;19934;-74
2023/03/20 03:02:38;;;;;;;12.88;8.38;;;8.50;99.90;;;;;;7586734;19;20029;-75
2023/03/20 03:05:16;;;;;;;15.90;8.65;;;8.40;99.90;;;;;;7599284;19;21456;-74
2023/03/20 03:07:52;;;;;;;21.20;11.77;;;8.40;99.90;;;;;;7602115;19;20029;-75
2023/03/20 03:10:48;;;;;;;24.40;12.25;;;8.50;99.90;;;;;;7604822;19;20047;-74
2023/03/20 03:13:27;;;;;;;23.05;11.18;;;8.50;99.90;;;;;;7605321;19;20034;-74
2023/03/20 03:16:19;;;;;;;31.05;15.18;;;8.50;99.90;;;;;;7599287;19;20040;-73
2023/03/20 03:19:12;;;;;;;29.77;14.90;;;8.40;99.90;;;;;;7606058;19;20018;-74
2023/03/20 03:21:46;;;;;;;14.85;7.70;;;8.40;99.90;;;;;;7607406;19;20019;-74
2023/03/20 03:24:30;;;;;;;17.38;9.95;;;8.40;99.90;;;;;;7602529;19;20102;-73
2023/03/20 03:27:28;;;;;;;11.02;5.95;;;8.40;99.90;;;;;;7599807;19;20022;-74
2023/03/20 03:30:05;;;;;;;10.80;6.50;;;8.50;99.90;;;;;;7600793;19;20026;-74
2023/03/20 03:33:04;;;;;;;14.48;9.27;;;8.30;99.90;;;;;;7588269;19;21280;-73
2023/03/20 03:35:37;;;;;;;10.40;6.47;;;8.40;99.90;;;;;;7599548;19;20018;-74
2023/03/20 03:38:20;;;;;;;10.75;7.05;;;8.40;99.90;;;;;;7605780;19;20391;-74
2023/03/20 03:41:09;;;;;;;9.68;6.45;;;8.40;99.90;;;;;;7612837;19;20994;-74
2023/03/20 03:43:47;;;;;;;14.88;8.02;;;8.40;99.90;;;;;;7596346;19;20630;-74
2023/03/20 03:46:22;;;;;;;10.13;6.93;;;8.40;99.90;;;;;;7578176;19;20010;-76
2023/03/20 03:48:57;;;;;;;9.05;6.95;;;8.40;99.90;;;;;;7599183;19;20376;-76
2023/03/20 03:51:34;;;;;;;10.10;7.35;;;8.40;99.90;;;;;;7599824;19;20010;-73
2023/03/20 03:54:24;;;;;;;10.95;8.10;;;8.40;99.90;;;;;;7582872;19;20049;-70
2023/03/20 03:57:21;;;;;;;12.70;8.57;;;8.40;99.90;;;;;;7589600;19;20038;-72
2023/03/20 03:59:56;;;;;;;8.45;6.20;;;8.40;99.90;;;;;;7569861;19;20026;-73
2023/03/20 04:02:28;;;;;;;8.88;6.32;;;8.40;99.90;;;;;;7579831;19;20010;-72
2023/03/20 04:05:04;;;;;;;11.50;6.50;;;8.50;99.90;;;;;;7601415;19;20023;-73
2023/03/20 04:07:38;;;;;;;8.98;6.90;;;8.50;99.90;;;;;;7599551;19;20103;-73
2023/03/20 04:10:12;;;;;;;8.73;6.40;;;8.50;99.90;;;;;;7597993;19;20048;-73
2023/03/20 04:12:44;;;;;;;10.20;6.00;;;8.50;99.90;;;;;;7593041;19;20022;-73
2023/03/20 04:15:19;;;;;;;9.45;7.05;;;8.50;99.90;;;;;;7585113;19;20353;-73
2023/03/20 04:17:51;;;;;;;9.00;6.70;;;8.50;99.90;;;;;;7595928;19;20776;-73
2023/03/20 04:20:24;;;;;;;8.55;6.57;;;8.50;99.90;;;;;;7592973;19;20043;-71
2023/03/20 04:22:56;;;;;;;7.93;6.55;;;8.50;99.90;;;;;;7589814;19;20081;-72
2023/03/20 04:25:28;;;;;;;8.23;5.60;;;8.50;99.90;;;;;;7579897;19;20014;-72
2023/03/20 04:28:01;;;;;;;8.13;6.55;;;8.50;99.90;;;;;;7603291;19;20019;-72
2023/03/20 04:31:03;;;;;;;8.63;5.72;;;8.40;99.90;;;;;;7589358;19;20034;-72
2023/03/20 04:33:52;;;;;;;8.35;6.00;;;8.50;99.90;;;;;;7602150;19;20026;-72
2023/03/20 04:36:48;;;;;;;10.05;6.75;;;8.50;99.90;;;;;;7587056;19;20035;-73
2023/03/20 04:39:21;;;;;;;;;;;8.40;99.90;;;;;;7603432;19;20019;-72
2023/03/20 04:41:54;;;;;;;11.63;8.02;;;8.40;99.90;;;;;;7598466;19;20294;-72
2023/03/20 04:44:26;;;;;;;12.73;8.32;;;8.40;99.90;;;;;;7580629;19;20487;-71
2023/03/20 04:46:59;;;;;;;14.75;8.40;;;8.40;99.90;;;;;;7595667;19;21222;-74
2023/03/20 04:49:31;;;;;;;12.73;8.38;;;8.40;99.90;;;;;;7589712;19;20936;-72
2023/03/20 04:52:04;;;;;;;11.00;7.63;;;8.40;99.90;;;;;;7600877;19;20025;-72
2023/03/20 04:54:42;;;;;;;9.90;7.63;;;8.40;99.90;;;;;;7588935;19;20404;-71
2023/03/20 04:57:16;;;;;;;10.40;6.00;;;8.40;99.90;;;;;;7603902;19;20015;-72
2023/03/20 04:59:48;;;;;;;9.27;6.75;;;8.40;99.90;;;;;;7589985;19;20059;-73
2023/03/20 05:02:21;;;;;;;8.23;6.40;;;8.40;99.90;;;;;;7591352;19;20022;-74
2023/03/20 05:04:54;;;;;;;11.13;6.88;;;8.50;99.90;;;;;;7603228;19;20027;-73
2023/03/20 05:07:26;;;;;;;9.55;6.05;;;8.40;99.90;;;;;;7602471;19;20018;-73
2023/03/20 05:10:04;;;;;;;7.15;5.22;;;8.50;99.90;;;;;;7588517;19;20855;-73
2023/03/20 05:12:46;;;;;;;7.32;5.13;;;8.50;99.90;;;;;;7602924;19;20023;-73
2023/03/20 05:15:40;;;;;;;6.13;4.85;;;8.50;99.90;;;;;;7587331;19;20022;-73
2023/03/20 05:18:31;;;;;;;6.07;4.25;;;8.50;99.90;;;;;;7603181;19;20062;-73
2023/03/20 05:21:35;;;;;;;7.67;4.53;;;8.50;99.90;;;;;;7594154;19;20504;-74
2023/03/20 05:24:40;;;;;;;6.22;4.18;;;8.50;99.90;;;;;;7587366;19;20442;-73
2023/03/20 05:27:21;;;;;;;4.40;3.58;;;8.50;99.90;;;;;;7591920;19;20015;-74
2023/03/20 05:30:12;;;;;;;4.75;4.20;;;8.40;99.90;;;;;;7592555;19;20052;-74
2023/03/20 05:33:03;;;;;;;4.68;3.63;;;8.40;99.90;;;;;;7596358;19;20043;-73
2023/03/20 05:35:56;;;;;;;5.97;4.28;;;8.50;99.90;;;;;;7592927;19;20018;-74
2023/03/20 05:38:38;;;;;;;6.40;3.92;;;8.30;99.90;;;;;;7584280;19;20014;-74
2023/03/20 05:41:29;;;;;;;8.38;4.18;;;8.40;99.90;;;;;;7596777;19;20375;-73
2023/03/20 05:44:10;;;;;;;8.55;5.10;;;8.30;99.90;;;;;;7600743;19;20946;-73
2023/03/20 05:46:48;;;;;;;5.25;4.25;;;8.30;99.90;;;;;;7580699;19;20797;-71
2023/03/20 05:49:54;;;;;;;6.28;4.45;;;8.30;99.90;;;;;;7575340;19;20027;-73
2023/03/20 05:52:39;;;;;;;5.00;4.10;;;8.40;99.90;;;;;;7573284;19;20608;-73
2023/03/20 05:55:44;;;;;;;5.45;4.05;;;8.30;99.90;;;;;;7574109;19;21109;-75
2023/03/20 05:58:31;;;;;;;8.30;4.40;;;8.30;99.90;;;;;;7581630;19;20684;-76
2023/03/20 06:01:25;;;;;;;4.90;4.32;;;8.30;99.90;;;;;;7568792;19;20030;-75
2023/03/20 06:04:17;;;;;;;8.48;4.70;;;8.30;99.90;;;;;;7569697;19;20177;-76
2023/03/20 06:07:05;;;;;;;17.90;8.20;;;8.30;99.90;;;;;;7544944;19;20292;-77
2023/03/20 06:09:38;;;;;;;13.27;6.00;;;8.30;99.90;;;;;;7559382;19;20022;-75
2023/03/20 06:12:15;;;;;;;24.95;9.75;;;8.40;99.90;;;;;;7568810;19;21369;-75
2023/03/20 06:14:47;;;;;;;13.43;7.13;;;8.40;99.90;;;;;;7574999;19;20689;-75
2023/03/20 06:17:20;;;;;;;14.90;7.15;;;8.40;99.90;;;;;;7556718;19;20011;-75
2023/03/20 06:19:56;;;;;;;9.77;5.85;;;8.40;99.90;;;;;;7560865;19;20026;-75
2023/03/20 06:22:29;;;;;;;16.73;6.80;;;8.40;99.90;;;;;;7545442;19;20014;-76
2023/03/20 06:25:01;;;;;;;13.50;7.65;;;8.30;99.90;;;;;;7555928;19;20014;-75
2023/03/20 06:27:39;;;;;;;13.68;7.82;;;8.30;99.90;;;;;;7572538;19;20019;-75
2023/03/20 06:30:11;;;;;;;14.32;8.40;;;8.30;99.90;;;;;;7588326;19;20010;-74
2023/03/20 06:32:45;;;;;;;16.35;9.35;;;8.30;99.90;;;;;;7582732;19;20021;-74
2023/03/20 06:35:18;;;;;;;;;;;8.30;99.90;;;;;;7601942;19;20047;-74
2023/03/20 06:37:52;;;;;;;14.70;8.45;;;8.30;99.90;;;;;;7599498;19;19922;-75
2023/03/20 06:40:30;;;;;;;11.05;7.13;;;8.40;99.90;;;;;;7589896;19;20022;-75
2023/03/20 06:43:03;;;;;;;10.23;7.32;;;8.40;99.90;;;;;;7610033;19;20015;-75
2023/03/20 06:45:47;;;;;;;14.75;9.55;;;8.40;99.90;;;;;;7611067;19;20025;-76
2023/03/20 06:48:40;;;;;;;10.25;7.38;;;8.30;99.90;;;;;;7619121;19;20789;-75
2023/03/20 06:51:12;;;;;;;12.07;7.63;;;8.30;99.90;;;;;;7607928;19;20873;-76
2023/03/20 06:53:53;;;;;;;12.48;7.75;;;8.30;99.90;;;;;;7602599;19;20022;-75
2023/03/20 06:56:31;;;;;;;11.20;7.43;;;8.30;99.90;;;;;;7603580;19;20117;-75
2023/03/20 06:59:03;;;;;;;;;;;8.30;99.90;;;;;;7607257;19;20018;-75
2023/03/20 07:01:36;;;;;;;11.20;7.70;;;8.30;99.90;;;;;;7603388;19;19922;-75
2023/03/20 07:04:10;;;;;;;10.73;8.02;;;8.40;99.90;;;;;;7596990;19;20034;-74
2023/03/20 07:06:51;;;;;;;11.82;8.10;;;8.50;99.90;;;;;;7598584;19;20026;-75
2023/03/20 07:09:23;;;;;;;15.70;10.88;;;8.40;99.90;;;;;;7594797;19;20062;-74
2023/03/20 07:11:56;;;;;;;16.17;9.40;;;8.40;99.90;;;;;;7613225;19;20097;-75
2023/03/20 07:14:29;;;;;;;13.82;9.25;;;8.40;99.90;;;;;;7605502;19;20420;-74
2023/03/20 07:17:06;;;;;;;12.43;8.57;;;8.50;99.90;;;;;;7612026;19;20023;-74
2023/03/20 07:19:38;;;;;;;13.52;9.07;;;8.50;99.90;;;;;;7608331;19;20778;-75
2023/03/20 07:22:20;;;;;;;14.73;9.30;;;8.60;99.90;;;;;;7610830;19;20015;-74
2023/03/20 07:24:53;;;;;;;12.30;8.63;;;8.60;99.90;;;;;;7608002;19;21208;-74
2023/03/20 07:27:28;;;;;;;11.63;7.82;;;8.60;99.90;;;;;;7605493;19;20022;-74
2023/03/20 07:30:01;;;;;;;11.73;7.85;;;8.70;99.90;;;;;;7615397;19;20029;-75
2023/03/20 07:32:33;;;;;;;12.40;8.77;;;8.80;99.90;;;;;;7603784;19;20372;-74
2023/03/20 07:35:09;;;;;;;14.10;9.10;;;8.80;99.90;;;;;;7607644;19;20071;-74
2023/03/20 07:37:44;;;;;;;12.07;8.55;;;8.90;99.90;;;;;;7607098;19;20006;-75
2023/03/20 07:40:17;;;;;;;15.82;8.70;;;8.90;99.90;;;;;;7612137;19;20027;-75
2023/03/20 07:43:05;;;;;;;11.70;8.38;;;9.00;99.90;;;;;;7603648;19;20597;-74
2023/03/20 07:46:08;;;;;;;10.45;7.53;;;9.20;99.90;;;;;;7605808;19;20376;-74
2023/03/20 07:48:42;;;;;;;14.40;9.85;;;9.30;99.90;;;;;;7607452;19;20019;-74
2023/03/20 07:51:14;;;;;;;11.63;7.85;;;9.50;99.90;;;;;;7607841;19;20022;-74
2023/03/20 07:53:46;;;;;;;11.40;7.78;;;9.50;99.90;;;;;;7610919;19;20022;-74
2023/03/20 07:56:18;;;;;;;9.88;7.70;;;9.50;99.90;;;;;;7606257;19;20022;-74
2023/03/20 07:58:50;;;;;;;9.90;7.22;;;9.50;99.90;;;;;;7611411;19;20487;-74
2023/03/20 08:01:23;;;;;;;11.20;8.10;;;9.50;99.90;;;;;;7598666;19;20010;-74
2023/03/20 08:03:55;;;;;;;10.63;8.18;;;9.60;99.90;;;;;;7607787;19;20026;-74
2023/03/20 08:06:27;;;;;;;11.45;7.90;;;9.60;99.90;;;;;;7606593;19;20033;-74
2023/03/20 08:09:00;;;;;;;10.50;8.23;;;9.60;99.90;;;;;;7609780;19;20030;-74
2023/03/20 08:11:32;;;;;;;16.83;8.15;;;9.60;99.90;;;;;;7607166;19;20817;-74
2023/03/20 08:14:05;;;;;;;10.60;8.20;;;9.70;99.90;;;;;;7611232;19;20025;-74
2023/03/20 08:16:37;;;;;;;10.50;7.50;;;9.90;99.90;;;;;;7603777;19;20022;-74
2023/03/20 08:19:10;;;;;;;9.18;7.28;;;9.80;99.90;;;;;;7612764;19;20240;-74
2023/03/20 08:21:42;;;;;;;10.93;8.10;;;9.80;99.90;;;;;;7604259;19;20029;-74
2023/03/20 08:24:15;;;;;;;9.38;7.18;;;9.90;99.90;;;;;;7610193;19;20019;-74
2023/03/20 08:26:47;;;;;;;11.15;8.27;;;10.00;99.90;;;;;;7604174;19;20014;-74
2023/03/20 08:29:19;;;;;;;11.50;7.78;;;9.90;99.90;;;;;;7611604;19;20022;-74
2023/03/20 08:31:51;;;;;;;12.32;7.30;;;9.90;99.90;;;;;;7602826;19;20026;-74
2023/03/20 08:34:23;;;;;;;12.65;7.15;;;9.90;99.90;;;;;;7608145;19;20018;-73
2023/03/20 08:36:56;;;;;;;11.65;8.13;;;9.90;99.90;;;;;;7608287;19;20019;-74
2023/03/20 08:39:28;;;;;;;9.70;7.45;;;9.90;99.90;;;;;;7609160;19;20952;-74
2023/03/20 08:42:00;;;;;;;11.23;7.78;;;9.80;99.90;;;;;;7602611;19;20021;-74
2023/03/20 08:44:32;;;;;;;8.82;7.25;;;9.80;99.90;;;;;;7605785;19;20045;-74
2023/03/20 08:47:06;;;;;;;9.95;7.28;;;9.70;99.90;;;;;;7606813;19;20030;-74
2023/03/20 08:49:38;;;;;;;13.00;8.13;;;9.70;99.90;;;;;;7611150;19;20018;-74
2023/03/20 08:52:10;;;;;;;13.13;7.47;;;9.70;99.90;;;;;;7604863;19;20451;-74
2023/03/20 08:54:42;;;;;;;9.15;5.70;;;9.60;99.90;;;;;;7605407;19;20021;-74
2023/03/20 08:57:14;;;;;;;10.93;7.65;;;9.90;99.90;;;;;;7608047;19;20018;-74
2023/03/20 08:59:46;;;;;;;9.27;7.22;;;10.00;99.90;;;;;;7608176;19;20025;-74
2023/03/20 09:02:18;;;;;;;10.00;6.38;;;10.10;99.90;;;;;;7607422;19;20026;-74
2023/03/20 09:04:51;;;;;;;11.43;6.30;;;10.10;99.90;;;;;;7606811;19;20056;-74
2023/03/20 09:07:23;;;;;;;9.88;6.05;;;10.10;99.90;;;;;;7607930;19;20642;-73
2023/03/20 09:09:55;;;;;;;8.75;7.00;;;10.10;99.90;;;;;;7603163;19;20029;-74
2023/03/20 09:12:27;;;;;;;9.88;6.28;;;10.00;99.90;;;;;;7607268;19;20026;-73
2023/03/20 09:15:00;;;;;;;10.85;6.43;;;10.00;99.90;;;;;;7610744;19;20032;-74
2023/03/20 09:17:32;;;;;;;8.10;6.00;;;10.10;99.90;;;;;;7610853;19;20016;-74
2023/03/20 09:20:05;;;;;;;8.77;5.43;;;10.20;99.90;;;;;;7613159;19;20019;-75
2023/03/20 09:22:39;;;;;;;7.45;5.47;;;10.20;99.90;;;;;;7605389;19;20014;-73
2023/03/20 09:25:12;;;;;;;8.85;4.70;;;10.30;99.90;;;;;;7612149;19;20015;-74
2023/03/20 09:27:45;;;;;;;6.37;4.40;;;10.10;99.90;;;;;;7606828;19;20919;-73
2023/03/20 09:30:17;;;;;;;11.52;4.95;;;10.20;99.90;;;;;;7603137;19;20022;-74
2023/03/20 09:32:50;;;;;;;9.15;4.95;;;10.30;99.90;;;;;;7609402;19;20053;-74
2023/03/20 09:35:23;;;;;;;6.07;4.25;;;10.40;99.90;;;;;;7610403;19;20610;-74
2023/03/20 09:37:55;;;;;;;6.25;3.83;;;10.50;99.90;;;;;;7608671;19;20364;-74
2023/03/20 09:41:00;;;;;;;6.07;3.47;;;10.60;99.90;;;;;;7604553;19;20019;-74
2023/03/20 09:44:00;;;;;;;6.05;3.60;;;10.70;99.90;;;;;;7602465;19;20151;-74
2023/03/20 09:46:48;;;;;;;4.93;3.20;;;10.60;99.90;;;;;;7600937;19;20462;-74
2023/03/20 09:49:42;;;;;;;4.22;3.10;;;10.80;99.90;;;;;;7605166;19;20026;-74
2023/03/20 09:52:28;;;;;;;3.55;3.10;;;10.90;99.90;;;;;;7610940;19;20018;-74
2023/03/20 09:55:13;;;;;;;4.30;3.20;;;11.00;99.90;;;;;;7611004;19;20117;-74
2023/03/20 09:57:53;;;;;;;4.35;2.80;;;11.10;99.90;;;;;;7620631;19;20021;-74
2023/03/20 10:00:29;;;;;;;3.22;2.78;;;11.20;99.90;;;;;;7619662;19;20565;-74
2023/03/20 10:03:23;;;;;;;5.97;3.20;;;11.30;99.90;;;;;;7617704;19;20026;-74
2023/03/20 10:06:02;;;;;;;3.17;2.40;;;11.40;99.90;;;;;;7617699;19;20022;-74
2023/03/20 10:08:36;;;;;;;4.60;2.42;;;11.70;99.90;;;;;;7619586;19;20138;-75
2023/03/20 10:11:31;;;;;;;3.05;2.65;;;11.70;99.90;;;;;;7622706;19;20036;-75
2023/03/20 10:14:31;;;;;;;6.80;2.40;;;11.90;99.90;;;;;;7631528;19;20018;-75
2023/03/20 10:17:34;;;;;;;3.97;2.20;;;11.90;99.90;;;;;;7652472;19;20042;-74
2023/03/20 10:20:18;;;;;;;4.20;2.47;;;11.90;99.90;;;;;;7661672;19;20018;-74
2023/03/20 10:23:11;;;;;;;3.75;2.10;;;11.90;99.90;;;;;;7656430;19;20015;-74
2023/03/20 10:25:52;;;;;;;3.78;2.40;;;11.80;99.90;;;;;;7656869;19;20386;-74
2023/03/20 10:28:42;;;;;;;4.93;2.65;;;11.80;99.90;;;;;;7657641;19;20018;-75
2023/03/20 10:31:39;;;;;;;2.97;2.22;;;11.90;99.90;;;;;;7667000;19;20043;-74
2023/03/20 10:34:21;;;;;;;3.53;2.10;;;11.80;99.90;;;;;;7665293;19;20022;-75
2023/03/20 10:37:28;;;;;;;3.47;2.72;;;11.80;99.90;;;;;;7639567;19;20725;-74
2023/03/20 10:40:19;;;;;;;3.95;2.60;;;11.50;99.90;;;;;;7639493;19;20014;-75
2023/03/20 10:42:55;;;;;;;4.20;2.20;;;11.50;99.90;;;;;;7647436;19;20010;-75
2023/03/20 10:45:33;;;;;;;2.22;1.90;;;11.50;99.90;;;;;;7631662;19;20384;-75
2023/03/20 10:48:28;;;;;;;7.43;2.60;;;11.60;99.90;;;;;;7628950;19;20014;-75
2023/03/20 10:51:02;;;;;;;5.05;2.10;;;11.70;99.90;;;;;;7629600;19;20047;-75
2023/03/20 10:54:01;;;;;;;5.93;1.90;;;12.00;99.90;;;;;;7630387;19;20014;-75
2023/03/20 10:56:42;;;;;;;2.97;1.88;;;12.30;97.00;;;;;;7629904;19;20035;-74
2023/03/20 10:59:33;;;;;;;6.22;2.00;;;12.40;95.60;;;;;;7629655;19;20062;-76
2023/03/20 11:02:13;;;;;;;2.35;1.73;;;12.60;94.00;;;;;;7633240;19;20070;-75
2023/03/20 11:04:45;;;;;;;3.97;1.50;;;12.50;92.40;;;;;;7626597;19;20029;-74
2023/03/20 11:07:36;;;;;;;4.07;1.30;;;12.50;93.70;;;;;;7634099;19;20040;-74
2023/03/20 11:10:12;;;;;;;2.58;1.77;;;12.30;92.90;;;;;;7632259;19;20015;-74
2023/03/20 11:12:47;;;;;;;2.50;1.50;;;12.30;94.90;;;;;;7624036;19;20030;-75
2023/03/20 11:15:22;;;;;;;1.95;1.60;;;12.20;95.60;;;;;;7623700;19;20014;-75
2023/03/20 11:17:54;;;;;;;1.98;1.50;;;12.20;94.00;;;;;;7623287;19;20015;-75
2023/03/20 11:20:50;;;;;;;1.77;1.42;;;12.30;95.30;;;;;;7628328;19;20446;-75
2023/03/20 11:23:30;;;;;;;2.08;1.35;;;12.60;95.50;;;;;;7625209;19;20542;-75
2023/03/20 11:26:05;;;;;;;2.17;1.20;;;13.10;92.20;;;;;;7623902;19;20035;-75
2023/03/20 11:28:53;;;;;;;1.40;0.90;;;13.30;90.20;;;;;;7611317;19;20041;-74
2023/03/20 11:31:31;;;;;;;1.02;0.85;;;13.40;89.10;;;;;;7616298;19;20022;-75
2023/03/20 11:34:03;;;;;;;1.38;1.00;;;13.40;84.50;;;;;;7620091;19;20131;-75
2023/03/20 11:36:38;;;;;;;1.70;1.13;;;13.40;86.40;;;;;;7618963;19;20014;-75
2023/03/20 11:39:14;;;;;;;1.75;0.93;;;13.60;82.70;;;;;;7617194;19;20490;-75
2023/03/20 11:41:50;;;;;;;1.40;1.00;;;13.90;81.60;;;;;;7615373;19;20024;-74
2023/03/20 11:44:31;;;;;;;1.35;0.95;;;14.60;74.80;;;;;;7615362;19;20101;-75
2023/03/20 11:47:19;;;;;;;0.85;0.70;;;15.60;74.50;;;;;;7621196;19;20030;-75
2023/03/20 11:50:02;;;;;;;1.10;0.82;;;15.90;69.40;;;;;;7618891;19;20384;-76
2023/03/20 11:52:37;;;;;;;0.93;0.87;;;15.50;69.80;;;;;;7612505;19;20090;-75
2023/03/20 11:55:33;;;;;;;0.98;0.80;;;15.50;69.50;;;;;;7617373;19;20015;-76
2023/03/20 11:58:13;;;;;;;1.50;0.98;;;15.60;69.40;;;;;;7617790;19;21122;-76
2023/03/20 12:00:49;;;;;;;1.65;1.00;;;15.40;69.30;;;;;;7612378;19;20022;-75
2023/03/20 12:03:54;;;;;;;3.72;1.13;;;15.10;71.10;;;;;;7618464;19;20112;-75
2023/03/20 12:06:48;;;;;;;4.25;1.02;;;15.60;69.10;;;;;;7616259;19;20053;-75
2023/03/20 12:09:26;;;;;;;1.08;0.88;;;16.30;67.10;;;;;;7615277;19;20019;-75
2023/03/20 12:12:04;;;;;;;1.58;1.02;;;16.00;66.60;;;;;;7613651;19;20077;-75
2023/03/20 12:15:00;;;;;;;1.35;1.00;;;15.80;68.30;;;;;;7615966;19;20082;-75
2023/03/20 12:17:44;;;;;;;4.88;1.50;;;15.50;69.40;;;;;;7613035;19;20026;-75
2023/03/20 12:20:49;;;;;;;3.55;1.38;;;14.90;70.80;;;;;;7612248;19;20018;-75
2023/03/20 12:23:40;;;;;;;2.75;1.45;;;14.60;70.80;;;;;;7598880;19;20656;-75
2023/03/20 12:26:13;;;;;;;4.72;1.25;;;14.60;72.20;;;;;;7603023;19;20521;-74
2023/03/20 12:28:46;;;;;;;0.93;0.80;;;14.20;71.10;;;;;;7600626;19;21485;-75
2023/03/20 12:31:40;;;;;;;2.47;0.80;;;14.00;72.30;;;;;;7602096;19;20435;-75
2023/03/20 12:34:22;;;;;;;2.22;1.10;;;14.10;75.70;;;;;;7603991;19;20102;-75
2023/03/20 12:36:57;;;;;;;1.13;0.98;;;14.10;73.10;;;;;;7589909;19;20018;-76
2023/03/20 12:39:35;;;;;;;3.53;1.25;;;14.20;74.30;;;;;;7606097;19;20025;-74
2023/03/20 12:42:19;;;;;;;1.67;1.30;;;14.10;72.50;;;;;;7602459;19;20015;-74
2023/03/20 12:45:23;;;;;;;1.77;1.40;;;14.00;72.40;;;;;;7603266;19;20118;-74
2023/03/20 12:48:11;;;;;;;2.30;1.40;;;14.00;74.70;;;;;;7588446;19;20051;-74
2023/03/20 12:50:51;;;;;;;2.85;1.45;;;13.90;74.30;;;;;;7608693;19;20095;-74
2023/03/20 12:53:51;;;;;;;3.20;1.38;;;14.00;74.20;;;;;;7605908;19;20030;-74
2023/03/20 12:56:42;;;;;;;1.20;1.00;;;14.10;73.00;;;;;;7610371;19;20025;-75
2023/03/20 12:59:20;;;;;;;4.13;1.55;;;14.10;73.70;;;;;;7607627;19;20022;-74
2023/03/20 13:02:28;;;;;;;3.97;1.55;;;14.00;74.20;;;;;;7602994;19;21401;-74
2023/03/20 13:05:12;;;;;;;2.30;1.48;;;13.70;74.90;;;;;;7605662;19;20046;-74
2023/03/20 13:08:09;;;;;;;2.63;1.30;;;13.60;75.90;;;;;;7598917;19;20323;-74
2023/03/20 13:10:53;;;;;;;2.22;1.60;;;13.50;76.20;;;;;;7605378;19;20019;-75
2023/03/20 13:13:40;;;;;;;3.08;1.50;;;13.50;77.40;;;;;;7607229;19;20047;-74
2023/03/20 13:16:33;;;;;;;3.10;2.13;;;13.40;78.20;;;;;;7605134;19;20022;-75
2023/03/20 13:19:21;;;;;;;8.73;2.03;;;13.40;79.30;;;;;;7600079;19;20018;-74
2023/03/20 13:22:04;;;;;;;5.18;2.28;;;13.50;78.60;;;;;;7604115;19;20027;-74
2023/03/20 13:25:03;;;;;;;2.63;1.98;;;13.30;76.70;;;;;;7589032;19;20014;-74
2023/03/20 13:28:07;;;;;;;3.38;2.25;;;13.20;77.80;;;;;;7599581;19;20015;-74
2023/03/20 13:30:54;;;;;;;3.35;2.20;;;13.20;77.50;;;;;;7598179;19;20057;-74
2023/03/20 13:33:55;;;;;;;4.53;2.17;;;13.30;77.80;;;;;;7598748;19;20021;-74
2023/03/20 13:36:52;;;;;;;6.07;2.40;;;13.50;77.10;;;;;;7573636;19;20068;-74
2023/03/20 13:39:27;;;;;;;3.58;2.53;;;13.80;77.60;;;;;;7570749;19;20018;-75
2023/03/20 13:42:03;;;;;;;3.08;2.20;;;14.40;76.20;;;;;;7597246;19;20018;-75
2023/03/20 13:44:37;;;;;;;3.65;2.08;;;15.10;73.60;;;;;;7574889;19;20129;-74
2023/03/20 13:47:18;;;;;;;3.33;1.77;;;15.30;73.20;;;;;;7574633;19;20014;-75
2023/03/20 13:50:32;;;;;;;3.08;2.08;;;15.40;72.50;;;;;;7607182;19;20026;-75
2023/03/20 13:53:28;;;;;;;2.60;1.87;;;15.90;71.50;;;;;;7588093;19;20057;-76
2023/03/20 13:56:24;;;;;;;1.50;1.35;;;16.60;68.50;;;;;;7604320;19;20013;-75
2023/03/20 13:59:02;;;;;;;2.10;1.48;;;16.80;63.70;;;;;;7561064;19;20061;-75